Nearby METAR* Reports

*"METAR [Météorologique Aviation Régulière] is the international standard code format for hourly surface weather observations which is analogous to the SA coding currently used in the US. The acronym roughly translates from French as Aviation Routine Weather Report." (Source: http://gosic.org/wdcmet/us-metar-faq-taf)

 

KTEB - Teterboro, New Jersey, USA
Distance from station: ENE 2mi, 3km
Updated: 10/18/2019 11:51pm
Clear
Clear
 Wind from NNW
Wind: NNW 3 mph , 6 km/h
Temperature: 46°F , 8°C
Dew Point: 30°F , -1°C
Humidity: 53%
Barometer: 30.02 inHg , 1016.6 hPa
Clouds: Clear
Visibility: 10 miles , 16 km
2019/10/19 03:51 KTEB 190351Z 33003KT 10SM CLR 08/M01 A3002 RMK AO2 SLP164 T00831006
KNYC - Nyc/Central Park, New York, USA
Distance from station: SE 8mi, 13km
Updated: 10/18/2019 11:51pm
Clear
Clear
 Wind from varies
Wind: varies 3 mph , 6 km/h
Temperature: 46°F , 8°C
Dew Point: 36°F , 2°C
Humidity: 66%
Barometer: 30.05 inHg , 1017.6 hPa
Clouds: Clear
Visibility: 10 miles , 16 km
2019/10/19 03:51 KNYC 190351Z AUTO VRB03KT 10SM CLR 08/02 A3005 RMK AO2 SLP166 T00830017 $
KCDW - Caldwell, New Jersey, USA
Distance from station: W 11mi, 17km
Updated: 10/18/2019 11:53pm
Clear
Clear
 Wind from calm
Wind: Calm
Temperature: 45°F , 7°C
Dew Point: 36°F , 2°C
Humidity: 71%
Barometer: 30.04 inHg , 1017.3 hPa
Clouds: Clear
Visibility: 10 miles , 16 km
2019/10/19 03:53 KCDW 190353Z AUTO 00000KT 10SM CLR 07/02 A3004 RMK AO2 SLP176 T00670022
 
KLGA - Nyc/La Guardia, New York, USA
Distance from station: ESE 12mi, 19km
Updated: 10/18/2019 11:51pm
Clear
Clear
 Wind from NNW
Wind: NNW 8 mph , 13 km/h
Temperature: 48°F , 9°C
Wind Chill: 44°F , 7°C
Dew Point: 36°F , 2°C
Humidity: 62%
Barometer: 30.02 inHg , 1016.6 hPa
Clouds: Clear
Visibility: 10 miles , 16 km
2019/10/19 03:51 KLGA 190351Z 34007KT 10SM CLR 09/02 A3002 RMK AO2 SLP164 T00940017
KEWR - Newark, New Jersey, USA
Distance from station: SSW 13mi, 20km
Updated: 10/18/2019 11:51pm
Clear
Clear
 Wind from NW
Wind: NW 7 mph , 11 km/h
Temperature: 48°F , 9°C
Wind Chill: 45°F , 7°C
Dew Point: 36°F , 2°C
Humidity: 62%
Barometer: 30.03 inHg , 1016.9 hPa
Clouds: Clear
Visibility: 10 miles , 16 km
2019/10/19 03:51 KEWR 190351Z 32006KT 10SM CLR 09/02 A3003 RMK AO2 SLP168 T00890017 $
KMMU - Morristown Muni, New Jersey, USA
Distance from station: WSW 18mi, 29km
Updated: 10/18/2019 11:55pm
Clear
Clear
 Wind from calm
Wind: Calm
Temperature: 37°F , 3°C
Dew Point: 37°F , 3°C
Humidity: 100%
Barometer: 30.03 inHg , 1016.9 hPa
Clouds: Clear
Visibility: 10 miles , 16 km
2019/10/19 03:55 KMMU 190355Z AUTO 00000KT 10SM CLR 03/03 A3003 RMK AO2
 
KLDJ - Linden, New Jersey, USA
Distance from station: SSW 19mi, 30km
Updated: 10/18/2019 11:35pm
Clear
Clear
 Wind from calm
Wind: Calm
Temperature: 46°F , 8°C
Dew Point: 36°F , 2°C
Humidity: 66%
Barometer: 30.03 inHg , 1016.9 hPa
Clouds: Clear
Visibility: 10 miles , 16 km
2019/10/19 03:35 KLDJ 190335Z AUTO 00000KT 10SM CLR 08/02 A3003 RMK AO2 T00750020
KJFK - Nyc/Jfk Arpt, New York, USA
Distance from station: SE 23mi, 36km
Updated: 10/18/2019 11:51pm
Clear
Clear
 Wind from NW
Wind: NW 13 mph , 20 km/h
Temperature: 48°F , 9°C
Wind Chill: 43°F , 6°C
Dew Point: 37°F , 3°C
Humidity: 66%
Barometer: 30.03 inHg , 1016.9 hPa
Clouds: Clear
Visibility: 10 miles , 16 km
2019/10/19 03:51 KJFK 190351Z 32011KT 10SM CLR 09/03 A3003 RMK AO2 SLP167 T00890033
KHPN - White Plains, New York, USA
Distance from station: NE 25mi, 40km
Updated: 10/18/2019 11:56pm
Clear
Clear
 Wind from NW
Wind: NW 8 mph , 13 km/h
Temperature: 45°F , 7°C
Wind Chill: 41°F , 5°C
Dew Point: 36°F , 2°C
Humidity: 71%
Barometer: 30.00 inHg , 1015.9 hPa
Clouds: Clear
Visibility: 10 miles , 16 km
2019/10/19 03:56 KHPN 190356Z 31007KT 10SM CLR 07/02 A3000 RMK AO2 SLP160 T00670022 $
 
KSMQ - Somerville, New Jersey, USA
Distance from station: WSW 35mi, 56km
Updated: 10/18/2019 11:53pm
Clear
Clear
 Wind from calm
Wind: Calm
Temperature: 37°F , 3°C
Dew Point: 36°F , 2°C
Humidity: 93%
Barometer: 30.02 inHg , 1016.6 hPa
Clouds: Clear
Visibility: 10 miles , 16 km
2019/10/19 03:53 KSMQ 190353Z AUTO 00000KT 10SM CLR 03/02 A3002 RMK AO2 SLP168 T00330017
K12N - Andover, New Jersey, USA
Distance from station: WNW 36mi, 57km
Updated: 10/18/2019 11:54pm

 Wind from calm
Wind: Calm
Temperature: 37°F , 3°C
Dew Point: 36°F , 2°C
Humidity: 93%
Barometer: 30.04 inHg , 1017.3 hPa
2019/10/19 03:54 K12N 190354Z AUTO 00000KT 03/02 A3004 RMK AO1 SLP177 T00280017
KFRG - Farmingdale, New York, USA
Distance from station: ESE 36mi, 58km
Updated: 10/18/2019 11:53pm
Few Clouds
Few Clouds
 Wind from WNW
Wind: WNW 6 mph , 9 km/h
Temperature: 46°F , 8°C
Wind Chill: 43°F , 6°C
Dew Point: 37°F , 3°C
Humidity: 71%
Barometer: 30.02 inHg , 1016.6 hPa
Clouds: Few Clouds
Visibility: 10 miles , 16 km
Cloud details: Few Clouds 3300 ft
2019/10/19 03:53 KFRG 190353Z AUTO 29005KT 10SM FEW033 08/03 A3002 RMK AO2 SLP165 T00780028
 
KFWN - Sussex, New Jersey, USA
Distance from station: NW 37mi, 60km
Updated: 10/18/2019 11:53pm
Clear
Clear
 Wind from calm
Wind: Calm
Temperature: 37°F , 3°C
Dew Point: 34°F , 1°C
Humidity: 87%
Barometer: 30.04 inHg , 1017.3 hPa
Clouds: Clear
Visibility: 10 miles , 16 km
2019/10/19 03:53 KFWN 190353Z AUTO 00000KT 10SM CLR 03/01 A3004 RMK AO2 SLP175 T00280006
KSWF - Newburgh/Stewart, New York, USA
Distance from station: 0 44mi, 72km
Updated: 10/18/2019 11:45pm
Clear
Clear
 Wind from calm
Wind: Calm
Temperature: 37°F , 3°C
Dew Point: 37°F , 3°C
Humidity: 100%
Barometer: 30.02 inHg , 1016.6 hPa
Clouds: Clear
Visibility: 10 miles , 16 km
2019/10/19 03:45 KSWF 190345Z 00000KT 10SM SKC 03/03 A3002
KMGJ - Montgomery, New York, USA
Distance from station: NNW 47mi, 75km
Updated: 10/18/2019 11:54pm
Clear
Clear
 Wind from NW
Wind: NW 8 mph , 13 km/h
Temperature: 43°F , 6°C
Wind Chill: 38°F , 3°C
Dew Point: 34°F , 1°C
Humidity: 71%
Barometer: 30.01 inHg , 1016.3 hPa
Clouds: Clear
Visibility: 10 miles , 16 km
2019/10/19 03:54 KMGJ 190354Z AUTO 31007KT 10SM CLR 06/01 A3001 RMK AO2 SLP165 T00560011
 
KDXR - Danbury, Connecticut, USA
Distance from station: NE 47mi, 76km
Updated: 10/18/2019 11:53pm
Clear
Clear
 Wind from varies
Wind: varies 3 mph , 6 km/h
Temperature: 45°F , 7°C
Dew Point: 34°F , 1°C
Humidity: 66%
Barometer: 30.01 inHg , 1016.3 hPa
Clouds: Clear
Visibility: 10 miles , 16 km
2019/10/19 03:53 KDXR 190353Z AUTO VRB03KT 10SM CLR 07/01 A3001 RMK AO2 SLP162 T00670011
KBLM - Belmar/Farmdale, New Jersey, USA
Distance from station: S 48mi, 77km
Updated: 10/16/2019 11:56pm
NOT Current
Overcast
Overcast
 Wind from W
Wind: W 25 mph , 41 km/h, Gust: 33 mph , 54 km/h
Temperature: 54°F , 12°C
Dew Point: 46°F , 8°C
Humidity: 77%
Barometer: 29.27 inHg , 991.2 hPa
Clouds: Overcast
Visibility: 10 miles , 16 km
Cloud details: Overcast 2600 ft
2019/10/17 03:56 KBLM 170356Z AUTO 28022G29KT 10SM OVC026 12/08 A2927 RMK AO2 PK WND 28037/0333 SLP911 T01170078